Chalmers, IN (47929)

4:39 AM EDT on May 06, 2015 (GMT -0400)
Brookston | | Change Station
CLOSE
Current Station
Personal Weather Station
Location: Brookston, IN
Elevation: 663 ft
Nearby Weather Stations

Elev 663 ft 40.63 °N, 86.83 °W | Updated 10 minutes ago

Mostly Cloudy
Mostly Cloudy
57.6 °F
Feels Like 57.6 °F
N
1.7
Wind Variable Wind from ENE

Today
High -- | Low -- °F
--% Chance of Precip.
Yesterday
High -- | Low -- °F
Precip. -- in
6:40 AM 8:48 PM
Waning Gibbous, 95% visible
Pressure 30.15 in
Visibility 3.0 miles
Clouds Clear
Dew Point 57 °F
Humidity 99%
Rainfall 0.00 in
Snow Depth Not available.
UV 0 out of 12
Pollen 10.20 out of 12
Air Quality Not available.
Flu Activity Local Activity
METAR KLAF 060754Z AUTO 09004KT 3SM BR CLR 14/14 A3016 RMK AO2 SLP208 T01390139

More Conditions Fewer Conditions

Pressure 30.15 in
Visibility 3.0 miles
Clouds Clear
Dew Point 57 °F
Humidity 99%
Rainfall 0.00 in
Snow Depth Not available.
UV 0 out of 12
Pollen 10.20 out of 12
Air Quality Not available.
Flu Activity Local Activity
METAR KLAF 060754Z AUTO 09004KT 3SM BR CLR 14/14 A3016 RMK AO2 SLP208 T01390139

More Conditions Fewer Conditions

10-Day Weather Forecast

Almanac

Astronomy

May. 06, 2015 Rise Set
Actual Time
Civil Twilight
Nautical Twilight
Astronomical Twilight
Moon
Length of Visible Light
Length of Day
Tomorrow will be .
, % of the Moon is Illuminated

Today's Extremes

State Highs State Lows

Community

WunderPhotos

Upload Photos

1,818,853 photos uploaded!

WunderBlogs® & News

Nearby

Air Quality

  Air Quality AQ Index Pollutant
Not available.

Snow Depth

Station Depth Elevation

Earthquake Activity

City Distance Mag. Time & Date
Minimum magnitude displayed is 2.5.

Coastal Water Temperatures

Place Temperature

Stations

Nearby Weather Stations

Station Location Temp. Windchill Dew Point Humidity Wind Precip. Elev Updated Type